Loral Space And Communications (LORL) Latest Bloomsberg Price


Mffais Ranking #1342 Overall / #26 Industry
Industry: Communications Equipment

Number of Companies: 60 (Ranking #2163 Overall/#31 Industry)
Inflow: $ 22,887 (K) (Ranking #1692 Overall/#21 Industry)
Outflow: $ -23,551 (K)
Mffais Flow: $ -663 (K) (Ranking #1342 Overall/#26 Industry)


Receive a FREE weekly executive review of stocks moving into the top 10, taking the top industy spot or moving up within their industry. Sent directly to your Inbox every Saturday. Sign up today and get last week's review immediately sent to you.

We value and respect your privacy. Please read our Terms and Conditions which states our firm commitment to your privacy. Your email address will not be shared with a third party, nor will it be sold or used for purposes other than subscription for the weekly review.

Owner CPOR Shares Action Qty Chg Invested (K) Total Current Value (K)
Nokomis Capital L L C 2016-09-30 229,459 New Holding 229,459 $ 8,191 $ 8,191
Hawk Ridge Capital Management Lp 2016-09-30 118,376 New Holding 118,376 $ 4,226 $ 4,226
Gamco Investors Inc Et Al 2016-09-30 560,996 Added More 64,058 $ 2,286 $ 20,027
Gabelli Funds Llc 2016-09-30 509,872 Added More 40,300 $ 1,438 $ 18,202
Phoenix Investment Adviser Llc 2016-09-30 39,000 New Holding 39,000 $ 1,392 $ 1,392
Altalis Capital Management Llc 2016-09-30 29,056 New Holding 29,056 $ 1,037 $ 1,037
Glacier Peak Capital Llc 2016-09-30 27,950 New Holding 27,950 $ 997 $ 997
Hudson Bay Capital Management Lp 2016-09-30 106,064 Added More 17,421 $ 621 $ 3,786
Simplex Trading Llc 2016-09-30 17,647 Added More 16,998 $ 606 $ 629
Gabelli Securities Inc 2016-09-30 92,672 Added More 11,308 $ 403 $ 3,308
Emerald Acquisition Ltd 2016-09-30 8,875 New Holding 8,875 $ 316 $ 316
Cutler Group Lp 2016-09-30 9,980 Added More 7,950 $ 283 $ 356
Peak6 Investments L P 2016-09-30 7,346 New Holding 7,346 $ 262 $ 262
Raymond James Associates 2016-09-30 6,000 New Holding 6,000 $ 214 $ 214
Spot Trading L L C 2016-09-30 5,750 New Holding 5,750 $ 205 $ 205
Sg Americas Securities Llc 2016-09-30 3,248 New Holding 3,248 $ 115 $ 115
Croft-Leominster Inc 2016-09-30 15,800 Added More 2,000 $ 71 $ 564
Ancora Advisors Llc 2016-09-30 79,358 Added More 1,650 $ 58 $ 2,833
Parametric Portfolio Associates Llc 2016-09-30 35,074 Added More 1,506 $ 53 $ 1,252
Gotham Asset Management Llc 2016-09-30 8,534 Added More 1,228 $ 43 $ 304
Legal General Group Plc 2016-09-30 3,903 Added More 631 $ 22 $ 139
Tower Research Capital Llc Trc 2016-09-30 1,523 Added More 344 $ 12 $ 54
California State Teachers Retirement System 2016-09-30 27,303 Added More 300 $ 10 $ 974
Blackrock Inc 2016-09-30 1,331 Added More 185 $ 6 $ 47
Quadrant Capital Group Llc 2016-09-30 53 New Holding 53 $ 1 $ 1
Us Bancorp De 2016-09-30 155 Added More 37 $ 1 $ 5
Van Eck Associates Corp 2016-09-30 80 Added More 29 $ 1 $ 2
Washington Trust Bank 2016-09-30 27 New Holding 27 $ 0 $ 0
Wealthtrust-Arizona Llc 2016-09-30 20 New Holding 20 $ 0 $ 0
American International Group Inc 2016-09-30 7,424 Added More 11 $ 0 $ 265
Zurcher Kantonalbank Zurich Cantonalbank 2016-09-30 391 No Change 0 $ 0 $ 13
New York State Common Retirement Fund 2016-09-30 13,700 No Change 0 $ 0 $ 489
Mhr Fund Management Llc 2016-09-30 8,529,419 No Change 0 $ 0 $ 304,500
Swiss National Bank 2016-09-30 22,900 No Change 0 $ 0 $ 817
Quadrant Capital Management Llc 2016-09-30 13,885 No Change 0 $ 0 $ 495
Nationwide Fund Advisors 2016-09-30 8,460 No Change 0 $ 0 $ 302
Glazer Capital Llc 2016-09-30 100 No Change 0 $ 0 $ 3
Nisa Investment Advisors Llc 2016-09-30 200 No Change 0 $ 0 $ 7
Teachers Advisors Inc 2016-09-30 20,502 Sold Some -12 $ -0 $ 731
Horizon Kinetics Llc 2016-09-30 29,427 Sold Some -20 $ -0 $ 1,050
Rhumbline Advisers 2016-09-30 15,552 Sold Some -75 $ -2 $ 555
Pnc Financial Services Group Inc 2016-09-30 1,265 Sold Some -76 $ -2 $ 45
Blackrock Investment Management Llc 2016-09-30 49,287 Sold Some -134 $ -4 $ 1,759
Teacher Retirement System Of Texas 2016-09-30 0 Sold All -1,937 $ -69 $ 0
Jbf Capital Inc 2016-09-30 0 Sold All -1,957 $ -69 $ 0
Northern Trust Corp 2016-09-30 160,829 Sold Some -2,143 $ -76 $ 5,741
Diam Co Ltd 2016-09-30 20,492 Sold Some -2,168 $ -77 $ 731
Chesapeake Partners Management Co Inc Md 2016-06-30 130,532 Sold Some -2,377 $ -83 $ 4,603
Walleye Trading Llc 2016-09-30 3,588 Sold Some -5,512 $ -196 $ 128
Kcg Holdings Inc 2016-09-30 0 Sold All -6,417 $ -229 $ 0
Soros Fund Management Llc 2016-09-30 0 Sold All -9,369 $ -334 $ 0
Tfs Capital Llc 2016-09-30 0 Sold All -10,470 $ -373 $ 0
Dynamic Technology Lab Private Ltd 2016-09-30 0 Sold All -11,104 $ -396 $ 0
Archer Capital Management L P 2016-09-30 572,351 Sold Some -31,869 $ -1,137 $ 20,432
Yost Capital Management L L C 2016-09-30 472,109 Sold Some -42,231 $ -1,507 $ 16,854
Royce Associates Lp 2016-09-30 0 Sold All -42,899 $ -1,531 $ 0
Dimensional Fund Advisors Lp 2016-09-30 70,205 Sold Some -66,422 $ -2,371 $ 2,506
Shannon River Fund Management Llc 2016-09-30 441,816 Sold Some -96,184 $ -3,433 $ 15,772
Omega Advisors Inc 2016-09-30 1,591,034 Sold Some -144,353 $ -5,153 $ 56,799
Solus Alternative Asset Management Lp 2016-09-30 1,951,891 Sold Some -182,000 $ -6,497 $ 69,682